sensor_id;sensor_type;location;lat;lon;timestamp;P1;durP1;ratioP1;P2;durP2;ratioP2
16737;SDS011;17906;47.684;10.806;2023-08-08T00:01:07;1.40;;;0.93;;
16737;SDS011;17906;47.684;10.806;2023-08-08T00:03:33;3.23;;;1.00;;
16737;SDS011;17906;47.684;10.806;2023-08-08T00:06:00;0.90;;;0.70;;
16737;SDS011;17906;47.684;10.806;2023-08-08T00:08:26;2.93;;;0.90;;
16737;SDS011;17906;47.684;10.806;2023-08-08T00:10:53;2.13;;;1.00;;
16737;SDS011;17906;47.684;10.806;2023-08-08T00:13:21;2.07;;;0.93;;
16737;SDS011;17906;47.684;10.806;2023-08-08T00:15:48;2.33;;;1.13;;
16737;SDS011;17906;47.684;10.806;2023-08-08T00:18:14;2.23;;;1.00;;
16737;SDS011;17906;47.684;10.806;2023-08-08T00:20:40;4.50;;;1.20;;
16737;SDS011;17906;47.684;10.806;2023-08-08T00:23:07;1.13;;;0.90;;
16737;SDS011;17906;47.684;10.806;2023-08-08T00:25:33;2.10;;;0.90;;
16737;SDS011;17906;47.684;10.806;2023-08-08T00:27:59;2.17;;;1.00;;
16737;SDS011;17906;47.684;10.806;2023-08-08T00:30:27;2.80;;;0.97;;
16737;SDS011;17906;47.684;10.806;2023-08-08T00:32:53;2.23;;;1.00;;
16737;SDS011;17906;47.684;10.806;2023-08-08T00:35:20;1.10;;;0.73;;
16737;SDS011;17906;47.684;10.806;2023-08-08T00:37:46;2.90;;;1.10;;
16737;SDS011;17906;47.684;10.806;2023-08-08T00:40:13;2.00;;;1.03;;
16737;SDS011;17906;47.684;10.806;2023-08-08T00:42:39;1.37;;;0.93;;
16737;SDS011;17906;47.684;10.806;2023-08-08T00:45:06;1.50;;;0.90;;
16737;SDS011;17906;47.684;10.806;2023-08-08T00:47:34;1.57;;;0.70;;
16737;SDS011;17906;47.684;10.806;2023-08-08T00:50:00;1.43;;;0.90;;
16737;SDS011;17906;47.684;10.806;2023-08-08T00:52:28;1.60;;;0.90;;
16737;SDS011;17906;47.684;10.806;2023-08-08T00:54:54;0.93;;;0.80;;
16737;SDS011;17906;47.684;10.806;2023-08-08T00:57:21;1.10;;;0.73;;
16737;SDS011;17906;47.684;10.806;2023-08-08T00:59:47;1.47;;;0.90;;
16737;SDS011;17906;47.684;10.806;2023-08-08T01:02:14;1.37;;;0.97;;
16737;SDS011;17906;47.684;10.806;2023-08-08T01:04:41;2.03;;;0.90;;
16737;SDS011;17906;47.684;10.806;2023-08-08T01:07:09;1.77;;;0.90;;
16737;SDS011;17906;47.684;10.806;2023-08-08T01:09:39;1.30;;;1.10;;
16737;SDS011;17906;47.684;10.806;2023-08-08T01:12:08;1.63;;;1.00;;
16737;SDS011;17906;47.684;10.806;2023-08-08T01:14:37;1.93;;;0.90;;
16737;SDS011;17906;47.684;10.806;2023-08-08T01:17:04;2.07;;;1.00;;
16737;SDS011;17906;47.684;10.806;2023-08-08T01:19:31;1.67;;;0.90;;
16737;SDS011;17906;47.684;10.806;2023-08-08T01:22:02;1.73;;;0.90;;
16737;SDS011;17906;47.684;10.806;2023-08-08T01:24:31;3.77;;;1.10;;
16737;SDS011;17906;47.684;10.806;2023-08-08T01:27:02;1.20;;;0.80;;
16737;SDS011;17906;47.684;10.806;2023-08-08T01:29:28;5.07;;;1.00;;
16737;SDS011;17906;47.684;10.806;2023-08-08T01:31:55;2.50;;;1.03;;
16737;SDS011;17906;47.684;10.806;2023-08-08T01:34:21;1.50;;;0.90;;
16737;SDS011;17906;47.684;10.806;2023-08-08T01:36:49;3.37;;;1.10;;
16737;SDS011;17906;47.684;10.806;2023-08-08T01:39:20;2.67;;;0.90;;
16737;SDS011;17906;47.684;10.806;2023-08-08T01:41:49;1.10;;;0.90;;
16737;SDS011;17906;47.684;10.806;2023-08-08T01:44:16;1.73;;;0.90;;
16737;SDS011;17906;47.684;10.806;2023-08-08T01:46:43;3.13;;;0.87;;
16737;SDS011;17906;47.684;10.806;2023-08-08T01:49:09;2.83;;;0.97;;
16737;SDS011;17906;47.684;10.806;2023-08-08T01:51:36;3.17;;;0.87;;
16737;SDS011;17906;47.684;10.806;2023-08-08T01:54:02;2.10;;;0.80;;
16737;SDS011;17906;47.684;10.806;2023-08-08T01:56:29;2.27;;;0.80;;
16737;SDS011;17906;47.684;10.806;2023-08-08T01:58:56;3.07;;;0.93;;
16737;SDS011;17906;47.684;10.806;2023-08-08T02:01:23;2.17;;;1.20;;
16737;SDS011;17906;47.684;10.806;2023-08-08T02:03:49;1.80;;;1.03;;
16737;SDS011;17906;47.684;10.806;2023-08-08T02:06:15;4.53;;;1.20;;
16737;SDS011;17906;47.684;10.806;2023-08-08T02:08:42;2.53;;;1.10;;
16737;SDS011;17906;47.684;10.806;2023-08-08T02:11:08;1.20;;;0.77;;
16737;SDS011;17906;47.684;10.806;2023-08-08T02:13:35;1.57;;;0.70;;
16737;SDS011;17906;47.684;10.806;2023-08-08T02:16:02;6.10;;;2.50;;
16737;SDS011;17906;47.684;10.806;2023-08-08T02:18:29;3.87;;;2.10;;
16737;SDS011;17906;47.684;10.806;2023-08-08T02:20:55;1.40;;;1.00;;
16737;SDS011;17906;47.684;10.806;2023-08-08T02:23:22;1.33;;;0.80;;
16737;SDS011;17906;47.684;10.806;2023-08-08T02:25:48;1.03;;;0.70;;
16737;SDS011;17906;47.684;10.806;2023-08-08T02:28:14;1.83;;;0.90;;
16737;SDS011;17906;47.684;10.806;2023-08-08T02:30:41;1.70;;;0.80;;
16737;SDS011;17906;47.684;10.806;2023-08-08T02:33:09;1.17;;;0.80;;
16737;SDS011;17906;47.684;10.806;2023-08-08T02:35:36;1.60;;;1.00;;
16737;SDS011;17906;47.684;10.806;2023-08-08T02:38:02;1.20;;;0.70;;
16737;SDS011;17906;47.684;10.806;2023-08-08T02:40:29;1.77;;;1.10;;
16737;SDS011;17906;47.684;10.806;2023-08-08T02:42:55;3.13;;;0.90;;
16737;SDS011;17906;47.684;10.806;2023-08-08T02:45:21;2.00;;;0.90;;
16737;SDS011;17906;47.684;10.806;2023-08-08T02:47:48;1.40;;;1.10;;
16737;SDS011;17906;47.684;10.806;2023-08-08T02:50:16;1.37;;;1.10;;
16737;SDS011;17906;47.684;10.806;2023-08-08T02:52:42;1.87;;;0.80;;
16737;SDS011;17906;47.684;10.806;2023-08-08T02:55:09;1.57;;;1.00;;
16737;SDS011;17906;47.684;10.806;2023-08-08T02:57:35;2.53;;;0.97;;
16737;SDS011;17906;47.684;10.806;2023-08-08T03:00:02;1.33;;;0.70;;
16737;SDS011;17906;47.684;10.806;2023-08-08T03:02:29;1.23;;;0.90;;
16737;SDS011;17906;47.684;10.806;2023-08-08T03:04:55;1.50;;;0.90;;
16737;SDS011;17906;47.684;10.806;2023-08-08T03:07:23;2.23;;;0.77;;
16737;SDS011;17906;47.684;10.806;2023-08-08T03:09:49;3.50;;;1.00;;
16737;SDS011;17906;47.684;10.806;2023-08-08T03:12:16;3.20;;;0.80;;
16737;SDS011;17906;47.684;10.806;2023-08-08T03:14:42;1.63;;;1.00;;
16737;SDS011;17906;47.684;10.806;2023-08-08T03:17:09;1.43;;;0.77;;
16737;SDS011;17906;47.684;10.806;2023-08-08T03:19:35;1.80;;;0.70;;
16737;SDS011;17906;47.684;10.806;2023-08-08T03:22:01;1.80;;;0.77;;
16737;SDS011;17906;47.684;10.806;2023-08-08T03:24:29;2.17;;;0.80;;
16737;SDS011;17906;47.684;10.806;2023-08-08T03:26:56;1.37;;;0.90;;
16737;SDS011;17906;47.684;10.806;2023-08-08T03:29:22;1.30;;;1.00;;
16737;SDS011;17906;47.684;10.806;2023-08-08T03:31:48;2.53;;;0.93;;
16737;SDS011;17906;47.684;10.806;2023-08-08T03:34:15;3.50;;;1.33;;
16737;SDS011;17906;47.684;10.806;2023-08-08T03:36:41;1.57;;;1.10;;
16737;SDS011;17906;47.684;10.806;2023-08-08T03:39:08;2.30;;;1.10;;
16737;SDS011;17906;47.684;10.806;2023-08-08T03:41:35;2.13;;;0.63;;
16737;SDS011;17906;47.684;10.806;2023-08-08T03:44:02;1.27;;;0.80;;
16737;SDS011;17906;47.684;10.806;2023-08-08T03:46:29;2.60;;;0.70;;
16737;SDS011;17906;47.684;10.806;2023-08-08T03:48:55;2.30;;;0.77;;
16737;SDS011;17906;47.684;10.806;2023-08-08T03:51:22;2.67;;;0.87;;
16737;SDS011;17906;47.684;10.806;2023-08-08T03:53:48;2.17;;;1.20;;
16737;SDS011;17906;47.684;10.806;2023-08-08T03:56:14;2.17;;;1.00;;
16737;SDS011;17906;47.684;10.806;2023-08-08T03:58:42;2.37;;;1.10;;
16737;SDS011;17906;47.684;10.806;2023-08-08T04:01:08;2.17;;;1.00;;
16737;SDS011;17906;47.684;10.806;2023-08-08T04:03:35;1.97;;;1.50;;
16737;SDS011;17906;47.684;10.806;2023-08-08T04:06:02;2.97;;;1.60;;
16737;SDS011;17906;47.684;10.806;2023-08-08T04:08:28;3.30;;;1.70;;
16737;SDS011;17906;47.684;10.806;2023-08-08T04:10:55;2.97;;;1.60;;
16737;SDS011;17906;47.684;10.806;2023-08-08T04:13:21;5.07;;;1.50;;
16737;SDS011;17906;47.684;10.806;2023-08-08T04:15:49;4.20;;;1.87;;
16737;SDS011;17906;47.684;10.806;2023-08-08T04:18:16;3.73;;;1.90;;
16737;SDS011;17906;47.684;10.806;2023-08-08T04:20:44;4.50;;;1.90;;
16737;SDS011;17906;47.684;10.806;2023-08-08T04:23:11;4.57;;;2.10;;
16737;SDS011;17906;47.684;10.806;2023-08-08T04:25:37;3.33;;;1.90;;
16737;SDS011;17906;47.684;10.806;2023-08-08T04:28:04;3.93;;;1.90;;
16737;SDS011;17906;47.684;10.806;2023-08-08T04:30:30;3.30;;;1.50;;
16737;SDS011;17906;47.684;10.806;2023-08-08T04:32:58;2.80;;;1.33;;
16737;SDS011;17906;47.684;10.806;2023-08-08T04:35:24;2.07;;;1.23;;
16737;SDS011;17906;47.684;10.806;2023-08-08T04:37:51;3.17;;;1.33;;
16737;SDS011;17906;47.684;10.806;2023-08-08T04:40:17;1.93;;;1.30;;
16737;SDS011;17906;47.684;10.806;2023-08-08T04:42:43;2.73;;;1.40;;
16737;SDS011;17906;47.684;10.806;2023-08-08T04:45:10;1.83;;;1.17;;
16737;SDS011;17906;47.684;10.806;2023-08-08T04:47:38;1.93;;;1.30;;
16737;SDS011;17906;47.684;10.806;2023-08-08T04:50:06;2.80;;;1.60;;
16737;SDS011;17906;47.684;10.806;2023-08-08T04:52:32;2.17;;;1.50;;
16737;SDS011;17906;47.684;10.806;2023-08-08T04:54:58;3.30;;;1.30;;
16737;SDS011;17906;47.684;10.806;2023-08-08T04:57:25;4.33;;;1.27;;
16737;SDS011;17906;47.684;10.806;2023-08-08T04:59:51;5.03;;;1.50;;
16737;SDS011;17906;47.684;10.806;2023-08-08T05:02:18;3.33;;;1.70;;
16737;SDS011;17906;47.684;10.806;2023-08-08T05:04:44;4.07;;;1.53;;
16737;SDS011;17906;47.684;10.806;2023-08-08T05:07:12;4.40;;;1.67;;
16737;SDS011;17906;47.684;10.806;2023-08-08T05:09:38;3.87;;;1.67;;
16737;SDS011;17906;47.684;10.806;2023-08-08T05:12:05;4.00;;;2.63;;
16737;SDS011;17906;47.684;10.806;2023-08-08T05:14:32;3.70;;;2.27;;
16737;SDS011;17906;47.684;10.806;2023-08-08T05:16:58;2.90;;;2.10;;
16737;SDS011;17906;47.684;10.806;2023-08-08T05:19:25;4.13;;;2.07;;
16737;SDS011;17906;47.684;10.806;2023-08-08T05:21:51;3.33;;;2.17;;
16737;SDS011;17906;47.684;10.806;2023-08-08T05:24:19;3.33;;;2.13;;
16737;SDS011;17906;47.684;10.806;2023-08-08T05:26:45;3.47;;;2.13;;
16737;SDS011;17906;47.684;10.806;2023-08-08T05:29:12;2.90;;;1.73;;
16737;SDS011;17906;47.684;10.806;2023-08-08T05:31:38;3.80;;;1.63;;
16737;SDS011;17906;47.684;10.806;2023-08-08T05:34:04;2.10;;;1.50;;
16737;SDS011;17906;47.684;10.806;2023-08-08T05:36:31;4.67;;;1.70;;
16737;SDS011;17906;47.684;10.806;2023-08-08T05:38:58;4.17;;;1.70;;
16737;SDS011;17906;47.684;10.806;2023-08-08T05:41:25;3.37;;;1.60;;
16737;SDS011;17906;47.684;10.806;2023-08-08T05:43:52;2.70;;;1.77;;
16737;SDS011;17906;47.684;10.806;2023-08-08T05:46:18;3.37;;;1.60;;
16737;SDS011;17906;47.684;10.806;2023-08-08T05:48:44;4.97;;;1.93;;
16737;SDS011;17906;47.684;10.806;2023-08-08T05:51:11;3.63;;;1.47;;
16737;SDS011;17906;47.684;10.806;2023-08-08T05:53:38;3.20;;;1.40;;
16737;SDS011;17906;47.684;10.806;2023-08-08T05:56:04;1.83;;;1.10;;
16737;SDS011;17906;47.684;10.806;2023-08-08T05:58:32;2.17;;;1.00;;
16737;SDS011;17906;47.684;10.806;2023-08-08T06:00:58;2.20;;;1.27;;
16737;SDS011;17906;47.684;10.806;2023-08-08T06:03:25;1.93;;;1.20;;
16737;SDS011;17906;47.684;10.806;2023-08-08T06:05:51;2.23;;;1.40;;
16737;SDS011;17906;47.684;10.806;2023-08-08T06:08:17;1.83;;;1.20;;
16737;SDS011;17906;47.684;10.806;2023-08-08T06:10:44;2.00;;;1.10;;
16737;SDS011;17906;47.684;10.806;2023-08-08T06:13:10;1.50;;;0.90;;
16737;SDS011;17906;47.684;10.806;2023-08-08T06:15:38;1.77;;;1.23;;
16737;SDS011;17906;47.684;10.806;2023-08-08T06:18:04;3.63;;;1.10;;
16737;SDS011;17906;47.684;10.806;2023-08-08T06:20:31;2.07;;;1.30;;
16737;SDS011;17906;47.684;10.806;2023-08-08T06:22:57;2.63;;;1.10;;
16737;SDS011;17906;47.684;10.806;2023-08-08T06:25:24;2.60;;;1.33;;
16737;SDS011;17906;47.684;10.806;2023-08-08T06:27:50;2.60;;;1.20;;
16737;SDS011;17906;47.684;10.806;2023-08-08T06:30:16;1.53;;;1.00;;
16737;SDS011;17906;47.684;10.806;2023-08-08T06:32:44;1.30;;;0.90;;
16737;SDS011;17906;47.684;10.806;2023-08-08T06:35:11;3.33;;;1.00;;
16737;SDS011;17906;47.684;10.806;2023-08-08T06:37:37;2.20;;;1.00;;
16737;SDS011;17906;47.684;10.806;2023-08-08T06:40:04;1.87;;;1.03;;
16737;SDS011;17906;47.684;10.806;2023-08-08T06:42:32;1.30;;;1.00;;
16737;SDS011;17906;47.684;10.806;2023-08-08T06:44:58;3.00;;;1.20;;
16737;SDS011;17906;47.684;10.806;2023-08-08T06:47:25;1.70;;;1.10;;
16737;SDS011;17906;47.684;10.806;2023-08-08T06:49:52;1.43;;;1.00;;
16737;SDS011;17906;47.684;10.806;2023-08-08T06:52:19;1.67;;;1.10;;
16737;SDS011;17906;47.684;10.806;2023-08-08T06:54:45;1.60;;;0.90;;
16737;SDS011;17906;47.684;10.806;2023-08-08T06:57:12;2.67;;;1.07;;
16737;SDS011;17906;47.684;10.806;2023-08-08T06:59:38;2.80;;;1.23;;
16737;SDS011;17906;47.684;10.806;2023-08-08T07:02:05;1.70;;;0.93;;
16737;SDS011;17906;47.684;10.806;2023-08-08T07:04:31;1.80;;;1.10;;
16737;SDS011;17906;47.684;10.806;2023-08-08T07:06:59;1.60;;;1.03;;
16737;SDS011;17906;47.684;10.806;2023-08-08T07:09:25;2.67;;;1.20;;
16737;SDS011;17906;47.684;10.806;2023-08-08T07:11:52;2.37;;;1.23;;
16737;SDS011;17906;47.684;10.806;2023-08-08T07:14:18;1.70;;;0.90;;
16737;SDS011;17906;47.684;10.806;2023-08-08T07:16:45;1.63;;;1.00;;
16737;SDS011;17906;47.684;10.806;2023-08-08T07:19:13;1.53;;;0.90;;
16737;SDS011;17906;47.684;10.806;2023-08-08T07:21:40;2.27;;;1.00;;
16737;SDS011;17906;47.684;10.806;2023-08-08T07:24:08;1.20;;;0.90;;
16737;SDS011;17906;47.684;10.806;2023-08-08T07:26:35;3.20;;;1.10;;
16737;SDS011;17906;47.684;10.806;2023-08-08T07:29:01;2.27;;;1.17;;
16737;SDS011;17906;47.684;10.806;2023-08-08T07:31:27;2.30;;;1.00;;
16737;SDS011;17906;47.684;10.806;2023-08-08T07:33:54;2.20;;;0.87;;
16737;SDS011;17906;47.684;10.806;2023-08-08T07:36:20;1.88;;;0.98;;
16737;SDS011;17906;47.684;10.806;2023-08-08T07:38:46;1.30;;;0.85;;
16737;SDS011;17906;47.684;10.806;2023-08-08T07:41:14;2.33;;;1.13;;
16737;SDS011;17906;47.684;10.806;2023-08-08T07:43:41;1.48;;;0.82;;
16737;SDS011;17906;47.684;10.806;2023-08-08T07:46:07;1.70;;;0.98;;
16737;SDS011;17906;47.684;10.806;2023-08-08T07:48:34;1.80;;;0.95;;
16737;SDS011;17906;47.684;10.806;2023-08-08T07:51:00;1.80;;;1.10;;
16737;SDS011;17906;47.684;10.806;2023-08-08T07:53:26;1.17;;;0.90;;
16737;SDS011;17906;47.684;10.806;2023-08-08T07:55:53;2.15;;;0.90;;
16737;SDS011;17906;47.684;10.806;2023-08-08T07:58:20;2.08;;;1.20;;
16737;SDS011;17906;47.684;10.806;2023-08-08T08:00:50;1.73;;;1.13;;
16737;SDS011;17906;47.684;10.806;2023-08-08T08:03:18;2.13;;;1.10;;
16737;SDS011;17906;47.684;10.806;2023-08-08T08:05:44;2.25;;;1.25;;
16737;SDS011;17906;47.684;10.806;2023-08-08T08:08:11;2.42;;;1.02;;
16737;SDS011;17906;47.684;10.806;2023-08-08T08:10:37;2.90;;;1.20;;
16737;SDS011;17906;47.684;10.806;2023-08-08T08:13:03;1.42;;;0.93;;
16737;SDS011;17906;47.684;10.806;2023-08-08T08:15:31;1.40;;;0.85;;
16737;SDS011;17906;47.684;10.806;2023-08-08T08:17:58;1.10;;;0.85;;
16737;SDS011;17906;47.684;10.806;2023-08-08T08:20:24;1.80;;;0.95;;
16737;SDS011;17906;47.684;10.806;2023-08-08T08:22:50;1.25;;;0.80;;
16737;SDS011;17906;47.684;10.806;2023-08-08T08:25:17;2.15;;;1.02;;
16737;SDS011;17906;47.684;10.806;2023-08-08T08:27:43;1.35;;;1.10;;
16737;SDS011;17906;47.684;10.806;2023-08-08T08:30:10;1.83;;;1.02;;
16737;SDS011;17906;47.684;10.806;2023-08-08T08:32:38;3.28;;;1.00;;
16737;SDS011;17906;47.684;10.806;2023-08-08T08:35:05;1.48;;;0.85;;
16737;SDS011;17906;47.684;10.806;2023-08-08T08:37:33;1.08;;;0.80;;
16737;SDS011;17906;47.684;10.806;2023-08-08T08:39:59;1.88;;;0.93;;
16737;SDS011;17906;47.684;10.806;2023-08-08T08:42:26;2.45;;;0.90;;
16737;SDS011;17906;47.684;10.806;2023-08-08T08:44:52;1.55;;;0.93;;
16737;SDS011;17906;47.684;10.806;2023-08-08T08:47:21;2.63;;;0.82;;
16737;SDS011;17906;47.684;10.806;2023-08-08T08:49:49;1.52;;;0.70;;
16737;SDS011;17906;47.684;10.806;2023-08-08T08:52:16;3.78;;;1.10;;
16737;SDS011;17906;47.684;10.806;2023-08-08T08:54:43;1.55;;;1.10;;
16737;SDS011;17906;47.684;10.806;2023-08-08T08:57:09;2.97;;;0.93;;
16737;SDS011;17906;47.684;10.806;2023-08-08T08:59:35;1.30;;;0.82;;
16737;SDS011;17906;47.684;10.806;2023-08-08T09:02:03;1.92;;;1.00;;
16737;SDS011;17906;47.684;10.806;2023-08-08T09:04:29;2.15;;;0.85;;
16737;SDS011;17906;47.684;10.806;2023-08-08T09:06:57;1.45;;;0.80;;
16737;SDS011;17906;47.684;10.806;2023-08-08T09:09:24;1.52;;;0.80;;
16737;SDS011;17906;47.684;10.806;2023-08-08T09:11:51;1.45;;;0.90;;
16737;SDS011;17906;47.684;10.806;2023-08-08T09:14:18;2.50;;;1.05;;
16737;SDS011;17906;47.684;10.806;2023-08-08T09:16:45;2.28;;;0.90;;
16737;SDS011;17906;47.684;10.806;2023-08-08T09:19:12;1.38;;;0.82;;
16737;SDS011;17906;47.684;10.806;2023-08-08T09:21:38;2.70;;;0.77;;
16737;SDS011;17906;47.684;10.806;2023-08-08T09:24:06;2.28;;;1.00;;
16737;SDS011;17906;47.684;10.806;2023-08-08T09:26:33;4.03;;;0.77;;
16737;SDS011;17906;47.684;10.806;2023-08-08T09:28:59;1.35;;;0.80;;
16737;SDS011;17906;47.684;10.806;2023-08-08T09:31:26;1.20;;;0.88;;
16737;SDS011;17906;47.684;10.806;2023-08-08T09:33:53;1.25;;;0.88;;
16737;SDS011;17906;47.684;10.806;2023-08-08T09:36:19;3.95;;;0.90;;
16737;SDS011;17906;47.684;10.806;2023-08-08T09:38:46;1.83;;;1.00;;
16737;SDS011;17906;47.684;10.806;2023-08-08T09:41:13;1.73;;;0.80;;
16737;SDS011;17906;47.684;10.806;2023-08-08T09:43:42;1.40;;;0.90;;
16737;SDS011;17906;47.684;10.806;2023-08-08T09:46:09;1.40;;;0.70;;
16737;SDS011;17906;47.684;10.806;2023-08-08T09:48:35;1.65;;;1.10;;
16737;SDS011;17906;47.684;10.806;2023-08-08T09:51:04;2.30;;;0.80;;
16737;SDS011;17906;47.684;10.806;2023-08-08T09:53:32;0.90;;;0.70;;
16737;SDS011;17906;47.684;10.806;2023-08-08T09:55:58;1.63;;;1.02;;
16737;SDS011;17906;47.684;10.806;2023-08-08T09:58:27;1.50;;;0.90;;
16737;SDS011;17906;47.684;10.806;2023-08-08T10:00:53;2.65;;;0.80;;
16737;SDS011;17906;47.684;10.806;2023-08-08T10:03:20;6.38;;;1.70;;
16737;SDS011;17906;47.684;10.806;2023-08-08T10:05:47;1.70;;;0.77;;
16737;SDS011;17906;47.684;10.806;2023-08-08T10:08:14;1.88;;;1.00;;
16737;SDS011;17906;47.684;10.806;2023-08-08T10:10:41;1.10;;;0.75;;
16737;SDS011;17906;47.684;10.806;2023-08-08T10:13:08;3.08;;;1.15;;
16737;SDS011;17906;47.684;10.806;2023-08-08T10:15:37;1.58;;;1.00;;
16737;SDS011;17906;47.684;10.806;2023-08-08T10:18:05;1.98;;;0.80;;
16737;SDS011;17906;47.684;10.806;2023-08-08T10:20:32;1.40;;;1.00;;
16737;SDS011;17906;47.684;10.806;2023-08-08T10:22:59;1.85;;;1.00;;
16737;SDS011;17906;47.684;10.806;2023-08-08T10:25:27;2.05;;;0.98;;
16737;SDS011;17906;47.684;10.806;2023-08-08T10:28:03;1.85;;;0.90;;
16737;SDS011;17906;47.684;10.806;2023-08-08T10:30:42;0.82;;;0.80;;
16737;SDS011;17906;47.684;10.806;2023-08-08T10:33:15;3.30;;;0.90;;
16737;SDS011;17906;47.684;10.806;2023-08-08T10:35:49;1.83;;;0.90;;
16737;SDS011;17906;47.684;10.806;2023-08-08T10:38:16;1.25;;;1.02;;
16737;SDS011;17906;47.684;10.806;2023-08-08T10:40:43;2.22;;;0.95;;
16737;SDS011;17906;47.684;10.806;2023-08-08T10:43:10;0.98;;;0.80;;
16737;SDS011;17906;47.684;10.806;2023-08-08T10:45:37;3.17;;;0.90;;
16737;SDS011;17906;47.684;10.806;2023-08-08T10:48:09;1.20;;;0.70;;
16737;SDS011;17906;47.684;10.806;2023-08-08T10:50:38;1.13;;;0.73;;
16737;SDS011;17906;47.684;10.806;2023-08-08T10:53:04;2.28;;;0.95;;
16737;SDS011;17906;47.684;10.806;2023-08-08T10:55:35;1.25;;;0.80;;
16737;SDS011;17906;47.684;10.806;2023-08-08T10:58:04;1.73;;;1.00;;
16737;SDS011;17906;47.684;10.806;2023-08-08T11:00:31;0.98;;;0.70;;
16737;SDS011;17906;47.684;10.806;2023-08-08T11:02:59;1.20;;;0.90;;
16737;SDS011;17906;47.684;10.806;2023-08-08T11:05:29;1.02;;;0.82;;
16737;SDS011;17906;47.684;10.806;2023-08-08T11:07:58;1.20;;;0.77;;
16737;SDS011;17906;47.684;10.806;2023-08-08T11:10:25;2.58;;;0.80;;
16737;SDS011;17906;47.684;10.806;2023-08-08T11:12:56;2.08;;;0.90;;
16737;SDS011;17906;47.684;10.806;2023-08-08T11:15:23;2.13;;;1.08;;
16737;SDS011;17906;47.684;10.806;2023-08-08T11:17:49;1.98;;;0.80;;
16737;SDS011;17906;47.684;10.806;2023-08-08T11:20:17;1.23;;;0.80;;
16737;SDS011;17906;47.684;10.806;2023-08-08T11:22:45;2.00;;;1.00;;
16737;SDS011;17906;47.684;10.806;2023-08-08T11:25:16;2.35;;;0.73;;
16737;SDS011;17906;47.684;10.806;2023-08-08T11:27:48;2.17;;;1.15;;
16737;SDS011;17906;47.684;10.806;2023-08-08T11:30:14;2.08;;;0.95;;
16737;SDS011;17906;47.684;10.806;2023-08-08T11:32:40;1.50;;;0.80;;
16737;SDS011;17906;47.684;10.806;2023-08-08T11:35:08;0.88;;;0.68;;
16737;SDS011;17906;47.684;10.806;2023-08-08T11:37:34;1.23;;;0.73;;
16737;SDS011;17906;47.684;10.806;2023-08-08T11:40:03;2.33;;;0.98;;
16737;SDS011;17906;47.684;10.806;2023-08-08T11:42:30;1.58;;;0.85;;
16737;SDS011;17906;47.684;10.806;2023-08-08T11:44:57;4.13;;;0.90;;
16737;SDS011;17906;47.684;10.806;2023-08-08T11:47:24;3.53;;;0.80;;
16737;SDS011;17906;47.684;10.806;2023-08-08T11:49:51;3.35;;;0.90;;
16737;SDS011;17906;47.684;10.806;2023-08-08T11:52:17;1.20;;;0.80;;
16737;SDS011;17906;47.684;10.806;2023-08-08T11:54:44;1.60;;;0.95;;
16737;SDS011;17906;47.684;10.806;2023-08-08T11:57:12;1.58;;;0.88;;
16737;SDS011;17906;47.684;10.806;2023-08-08T11:59:38;2.53;;;0.90;;
16737;SDS011;17906;47.684;10.806;2023-08-08T12:02:05;2.55;;;0.70;;
16737;SDS011;17906;47.684;10.806;2023-08-08T12:04:32;1.65;;;0.93;;
16737;SDS011;17906;47.684;10.806;2023-08-08T12:07:02;1.55;;;0.80;;
16737;SDS011;17906;47.684;10.806;2023-08-08T12:09:29;1.98;;;0.60;;
16737;SDS011;17906;47.684;10.806;2023-08-08T12:11:58;1.65;;;0.80;;
16737;SDS011;17906;47.684;10.806;2023-08-08T12:14:26;1.23;;;0.90;;
16737;SDS011;17906;47.684;10.806;2023-08-08T12:16:53;2.33;;;0.88;;
16737;SDS011;17906;47.684;10.806;2023-08-08T12:19:22;0.95;;;0.77;;
16737;SDS011;17906;47.684;10.806;2023-08-08T12:21:49;5.50;;;0.90;;
16737;SDS011;17906;47.684;10.806;2023-08-08T12:24:15;1.48;;;0.77;;
16737;SDS011;17906;47.684;10.806;2023-08-08T12:26:41;2.03;;;0.90;;
16737;SDS011;17906;47.684;10.806;2023-08-08T12:29:08;1.30;;;0.70;;
16737;SDS011;17906;47.684;10.806;2023-08-08T12:31:36;1.05;;;0.73;;
16737;SDS011;17906;47.684;10.806;2023-08-08T12:34:02;1.27;;;0.80;;
16737;SDS011;17906;47.684;10.806;2023-08-08T12:36:29;1.30;;;0.90;;
16737;SDS011;17906;47.684;10.806;2023-08-08T12:38:55;1.50;;;0.80;;
16737;SDS011;17906;47.684;10.806;2023-08-08T12:41:22;0.98;;;0.70;;
16737;SDS011;17906;47.684;10.806;2023-08-08T12:43:49;1.77;;;1.08;;
16737;SDS011;17906;47.684;10.806;2023-08-08T12:46:16;1.50;;;0.70;;
16737;SDS011;17906;47.684;10.806;2023-08-08T12:48:43;3.35;;;0.98;;
16737;SDS011;17906;47.684;10.806;2023-08-08T12:51:10;1.00;;;0.68;;
16737;SDS011;17906;47.684;10.806;2023-08-08T12:53:36;1.25;;;0.80;;
16737;SDS011;17906;47.684;10.806;2023-08-08T12:56:03;1.23;;;0.80;;
16737;SDS011;17906;47.684;10.806;2023-08-08T12:58:29;2.20;;;0.90;;
16737;SDS011;17906;47.684;10.806;2023-08-08T13:00:56;1.42;;;0.80;;
16737;SDS011;17906;47.684;10.806;2023-08-08T13:03:22;1.23;;;0.70;;
16737;SDS011;17906;47.684;10.806;2023-08-08T13:05:50;2.42;;;1.00;;
16737;SDS011;17906;47.684;10.806;2023-08-08T13:08:17;2.20;;;0.90;;
16737;SDS011;17906;47.684;10.806;2023-08-08T13:10:44;1.98;;;0.68;;
16737;SDS011;17906;47.684;10.806;2023-08-08T13:13:11;1.27;;;0.75;;
16737;SDS011;17906;47.684;10.806;2023-08-08T13:15:38;4.32;;;0.75;;
16737;SDS011;17906;47.684;10.806;2023-08-08T13:18:04;1.33;;;0.85;;
16737;SDS011;17906;47.684;10.806;2023-08-08T13:20:31;1.30;;;0.75;;
16737;SDS011;17906;47.684;10.806;2023-08-08T13:22:59;1.30;;;0.80;;
16737;SDS011;17906;47.684;10.806;2023-08-08T13:25:25;1.40;;;0.90;;
16737;SDS011;17906;47.684;10.806;2023-08-08T13:27:52;0.88;;;0.77;;
16737;SDS011;17906;47.684;10.806;2023-08-08T13:30:18;1.05;;;0.85;;
16737;SDS011;17906;47.684;10.806;2023-08-08T13:32:46;2.63;;;0.90;;
16737;SDS011;17906;47.684;10.806;2023-08-08T13:35:13;1.40;;;0.75;;
16737;SDS011;17906;47.684;10.806;2023-08-08T13:37:39;1.42;;;0.80;;
16737;SDS011;17906;47.684;10.806;2023-08-08T13:40:07;2.13;;;0.88;;
16737;SDS011;17906;47.684;10.806;2023-08-08T13:42:34;1.40;;;0.85;;
16737;SDS011;17906;47.684;10.806;2023-08-08T13:45:00;2.08;;;0.90;;
16737;SDS011;17906;47.684;10.806;2023-08-08T13:47:27;4.07;;;0.93;;
16737;SDS011;17906;47.684;10.806;2023-08-08T13:49:53;1.75;;;0.90;;
16737;SDS011;17906;47.684;10.806;2023-08-08T13:52:19;1.38;;;0.90;;
16737;SDS011;17906;47.684;10.806;2023-08-08T13:54:46;1.65;;;0.88;;
16737;SDS011;17906;47.684;10.806;2023-08-08T13:57:14;1.92;;;0.90;;
16737;SDS011;17906;47.684;10.806;2023-08-08T13:59:40;1.90;;;0.82;;
16737;SDS011;17906;47.684;10.806;2023-08-08T14:02:06;2.10;;;1.00;;
16737;SDS011;17906;47.684;10.806;2023-08-08T14:04:33;1.77;;;0.85;;
16737;SDS011;17906;47.684;10.806;2023-08-08T14:06:59;1.45;;;0.80;;
16737;SDS011;17906;47.684;10.806;2023-08-08T14:09:25;1.73;;;0.70;;
16737;SDS011;17906;47.684;10.806;2023-08-08T14:11:52;1.25;;;0.73;;
16737;SDS011;17906;47.684;10.806;2023-08-08T14:14:20;4.90;;;0.80;;
16737;SDS011;17906;47.684;10.806;2023-08-08T14:16:46;1.30;;;0.80;;
16737;SDS011;17906;47.684;10.806;2023-08-08T14:19:13;2.42;;;1.10;;
16737;SDS011;17906;47.684;10.806;2023-08-08T14:21:41;1.70;;;0.77;;
16737;SDS011;17906;47.684;10.806;2023-08-08T14:24:07;1.20;;;0.70;;
16737;SDS011;17906;47.684;10.806;2023-08-08T14:26:33;1.10;;;0.90;;
16737;SDS011;17906;47.684;10.806;2023-08-08T14:29:00;2.65;;;0.90;;
16737;SDS011;17906;47.684;10.806;2023-08-08T14:31:27;1.35;;;0.80;;